sensor_id;sensor_type;location;lat;lon;timestamp;temperature;humidity
20278;DHT22;10298;49.716;17.806;2022-07-26T00:01:17;21.20;99.90
20278;DHT22;10298;49.716;17.806;2022-07-26T00:03:44;21.20;99.90
20278;DHT22;10298;49.716;17.806;2022-07-26T00:06:11;21.00;99.90
20278;DHT22;10298;49.716;17.806;2022-07-26T00:08:38;21.00;99.90
20278;DHT22;10298;49.716;17.806;2022-07-26T00:11:05;20.90;99.90
20278;DHT22;10298;49.716;17.806;2022-07-26T00:13:33;21.00;99.90
20278;DHT22;10298;49.716;17.806;2022-07-26T00:16:01;21.00;99.90
20278;DHT22;10298;49.716;17.806;2022-07-26T00:18:28;21.00;99.90
20278;DHT22;10298;49.716;17.806;2022-07-26T00:20:55;21.00;99.90
20278;DHT22;10298;49.716;17.806;2022-07-26T00:23:21;20.90;99.90
20278;DHT22;10298;49.716;17.806;2022-07-26T00:25:48;20.90;99.90
20278;DHT22;10298;49.716;17.806;2022-07-26T00:28:15;20.90;99.90
20278;DHT22;10298;49.716;17.806;2022-07-26T00:30:42;21.00;99.90
20278;DHT22;10298;49.716;17.806;2022-07-26T00:33:09;21.00;99.90
20278;DHT22;10298;49.716;17.806;2022-07-26T00:35:36;21.00;99.90
20278;DHT22;10298;49.716;17.806;2022-07-26T00:38:03;21.10;99.90
20278;DHT22;10298;49.716;17.806;2022-07-26T00:40:30;21.10;99.90
20278;DHT22;10298;49.716;17.806;2022-07-26T00:42:57;21.30;99.90
20278;DHT22;10298;49.716;17.806;2022-07-26T00:45:24;21.30;99.90
20278;DHT22;10298;49.716;17.806;2022-07-26T00:47:51;21.30;99.90
20278;DHT22;10298;49.716;17.806;2022-07-26T00:50:18;21.30;99.90
20278;DHT22;10298;49.716;17.806;2022-07-26T00:52:47;21.20;99.90
20278;DHT22;10298;49.716;17.806;2022-07-26T00:55:16;21.20;99.90
20278;DHT22;10298;49.716;17.806;2022-07-26T00:57:44;21.20;99.90
20278;DHT22;10298;49.716;17.806;2022-07-26T01:00:20;21.20;99.90
20278;DHT22;10298;49.716;17.806;2022-07-26T01:02:47;21.30;99.90
20278;DHT22;10298;49.716;17.806;2022-07-26T01:05:15;21.30;99.90
20278;DHT22;10298;49.716;17.806;2022-07-26T01:07:42;21.40;99.90
20278;DHT22;10298;49.716;17.806;2022-07-26T01:10:10;21.40;99.90
20278;DHT22;10298;49.716;17.806;2022-07-26T01:12:39;21.20;99.90
20278;DHT22;10298;49.716;17.806;2022-07-26T01:15:07;21.10;99.90
20278;DHT22;10298;49.716;17.806;2022-07-26T01:17:34;21.10;99.90
20278;DHT22;10298;49.716;17.806;2022-07-26T01:20:05;21.00;99.90
20278;DHT22;10298;49.716;17.806;2022-07-26T01:22:32;21.10;99.90
20278;DHT22;10298;49.716;17.806;2022-07-26T01:24:59;21.10;99.90
20278;DHT22;10298;49.716;17.806;2022-07-26T01:27:26;21.20;99.90
20278;DHT22;10298;49.716;17.806;2022-07-26T01:29:59;21.20;99.90
20278;DHT22;10298;49.716;17.806;2022-07-26T01:32:26;21.40;99.90
20278;DHT22;10298;49.716;17.806;2022-07-26T01:34:52;21.60;99.90
20278;DHT22;10298;49.716;17.806;2022-07-26T01:37:19;21.60;99.90
20278;DHT22;10298;49.716;17.806;2022-07-26T01:39:46;21.60;99.90
20278;DHT22;10298;49.716;17.806;2022-07-26T01:42:13;21.80;99.90
20278;DHT22;10298;49.716;17.806;2022-07-26T01:44:40;21.80;99.90
20278;DHT22;10298;49.716;17.806;2022-07-26T01:47:07;21.90;99.90
20278;DHT22;10298;49.716;17.806;2022-07-26T01:49:34;22.20;99.90
20278;DHT22;10298;49.716;17.806;2022-07-26T01:52:00;22.20;99.90
20278;DHT22;10298;49.716;17.806;2022-07-26T01:54:27;22.20;99.90
20278;DHT22;10298;49.716;17.806;2022-07-26T01:56:54;22.10;99.90
20278;DHT22;10298;49.716;17.806;2022-07-26T01:59:21;22.00;99.90
20278;DHT22;10298;49.716;17.806;2022-07-26T02:01:48;21.90;99.90
20278;DHT22;10298;49.716;17.806;2022-07-26T02:04:15;21.90;99.90
20278;DHT22;10298;49.716;17.806;2022-07-26T02:07:00;21.70;99.90
20278;DHT22;10298;49.716;17.806;2022-07-26T02:09:36;21.60;99.90
20278;DHT22;10298;49.716;17.806;2022-07-26T02:12:05;21.70;99.90
20278;DHT22;10298;49.716;17.806;2022-07-26T02:14:32;21.70;99.90
20278;DHT22;10298;49.716;17.806;2022-07-26T02:16:59;21.70;99.90
20278;DHT22;10298;49.716;17.806;2022-07-26T02:19:27;21.60;99.90
20278;DHT22;10298;49.716;17.806;2022-07-26T02:21:54;21.60;99.90
20278;DHT22;10298;49.716;17.806;2022-07-26T02:24:21;21.80;99.90
20278;DHT22;10298;49.716;17.806;2022-07-26T02:26:48;21.70;99.90
20278;DHT22;10298;49.716;17.806;2022-07-26T02:29:15;21.80;99.90
20278;DHT22;10298;49.716;17.806;2022-07-26T02:31:42;21.80;99.90
20278;DHT22;10298;49.716;17.806;2022-07-26T02:34:14;21.80;99.90
20278;DHT22;10298;49.716;17.806;2022-07-26T02:36:41;21.90;99.90
20278;DHT22;10298;49.716;17.806;2022-07-26T02:39:08;22.00;99.90
20278;DHT22;10298;49.716;17.806;2022-07-26T02:41:35;22.00;99.90
20278;DHT22;10298;49.716;17.806;2022-07-26T02:44:02;22.00;99.90
20278;DHT22;10298;49.716;17.806;2022-07-26T02:46:29;21.90;99.90
20278;DHT22;10298;49.716;17.806;2022-07-26T02:48:56;21.90;99.90
20278;DHT22;10298;49.716;17.806;2022-07-26T02:51:23;22.00;99.90
20278;DHT22;10298;49.716;17.806;2022-07-26T02:53:50;22.00;99.90
20278;DHT22;10298;49.716;17.806;2022-07-26T02:56:16;21.90;99.90
20278;DHT22;10298;49.716;17.806;2022-07-26T02:58:43;21.90;99.90
20278;DHT22;10298;49.716;17.806;2022-07-26T03:01:10;21.90;99.90
20278;DHT22;10298;49.716;17.806;2022-07-26T03:03:38;22.10;99.90
20278;DHT22;10298;49.716;17.806;2022-07-26T03:06:05;22.20;99.90
20278;DHT22;10298;49.716;17.806;2022-07-26T03:08:32;22.30;99.90
20278;DHT22;10298;49.716;17.806;2022-07-26T03:10:59;22.30;99.90
20278;DHT22;10298;49.716;17.806;2022-07-26T03:13:26;22.40;99.90
20278;DHT22;10298;49.716;17.806;2022-07-26T03:15:53;22.40;99.90
20278;DHT22;10298;49.716;17.806;2022-07-26T03:18:20;22.40;99.90
20278;DHT22;10298;49.716;17.806;2022-07-26T03:20:46;22.40;99.90
20278;DHT22;10298;49.716;17.806;2022-07-26T03:23:13;22.40;99.90
20278;DHT22;10298;49.716;17.806;2022-07-26T03:25:40;22.30;99.90
20278;DHT22;10298;49.716;17.806;2022-07-26T03:28:08;22.40;99.90
20278;DHT22;10298;49.716;17.806;2022-07-26T03:30:35;22.30;99.90
20278;DHT22;10298;49.716;17.806;2022-07-26T03:33:02;22.30;99.90
20278;DHT22;10298;49.716;17.806;2022-07-26T03:35:28;22.30;99.90
20278;DHT22;10298;49.716;17.806;2022-07-26T03:38:02;22.30;99.90
20278;DHT22;10298;49.716;17.806;2022-07-26T03:40:28;22.20;99.90
20278;DHT22;10298;49.716;17.806;2022-07-26T03:42:55;22.20;99.90
20278;DHT22;10298;49.716;17.806;2022-07-26T03:45:22;22.30;99.90
20278;DHT22;10298;49.716;17.806;2022-07-26T03:47:49;22.30;99.90
20278;DHT22;10298;49.716;17.806;2022-07-26T03:50:16;22.50;99.90
20278;DHT22;10298;49.716;17.806;2022-07-26T03:52:43;22.50;99.90
20278;DHT22;10298;49.716;17.806;2022-07-26T03:55:10;22.50;99.90
20278;DHT22;10298;49.716;17.806;2022-07-26T03:57:56;22.90;99.90
20278;DHT22;10298;49.716;17.806;2022-07-26T04:00:22;23.00;99.90
20278;DHT22;10298;49.716;17.806;2022-07-26T04:02:49;23.10;99.90
20278;DHT22;10298;49.716;17.806;2022-07-26T04:05:16;23.10;99.90
20278;DHT22;10298;49.716;17.806;2022-07-26T04:07:49;23.00;99.90
20278;DHT22;10298;49.716;17.806;2022-07-26T04:10:20;22.90;99.90
20278;DHT22;10298;49.716;17.806;2022-07-26T04:12:47;22.80;99.90
20278;DHT22;10298;49.716;17.806;2022-07-26T04:15:14;22.80;99.90
20278;DHT22;10298;49.716;17.806;2022-07-26T04:17:42;22.60;99.90
20278;DHT22;10298;49.716;17.806;2022-07-26T04:20:10;22.50;99.90
20278;DHT22;10298;49.716;17.806;2022-07-26T04:22:40;22.40;99.90
20278;DHT22;10298;49.716;17.806;2022-07-26T04:25:08;22.30;99.90
20278;DHT22;10298;49.716;17.806;2022-07-26T04:27:36;22.20;99.90
20278;DHT22;10298;49.716;17.806;2022-07-26T04:30:04;22.10;99.90
20278;DHT22;10298;49.716;17.806;2022-07-26T04:32:38;22.00;99.90
20278;DHT22;10298;49.716;17.806;2022-07-26T04:35:05;21.90;99.90
20278;DHT22;10298;49.716;17.806;2022-07-26T04:37:38;21.90;99.90
20278;DHT22;10298;49.716;17.806;2022-07-26T04:40:05;21.80;99.90
20278;DHT22;10298;49.716;17.806;2022-07-26T04:42:32;21.70;99.90
20278;DHT22;10298;49.716;17.806;2022-07-26T04:44:59;21.60;99.90
20278;DHT22;10298;49.716;17.806;2022-07-26T04:47:33;21.50;99.90
20278;DHT22;10298;49.716;17.806;2022-07-26T04:50:00;21.30;99.90
20278;DHT22;10298;49.716;17.806;2022-07-26T04:52:27;21.20;99.90
20278;DHT22;10298;49.716;17.806;2022-07-26T04:54:54;21.10;99.90
20278;DHT22;10298;49.716;17.806;2022-07-26T04:57:31;20.80;99.90
20278;DHT22;10298;49.716;17.806;2022-07-26T04:59:57;20.40;99.90
20278;DHT22;10298;49.716;17.806;2022-07-26T05:02:45;20.20;99.90
20278;DHT22;10298;49.716;17.806;2022-07-26T05:05:12;20.00;99.90
20278;DHT22;10298;49.716;17.806;2022-07-26T05:07:40;19.80;99.90
20278;DHT22;10298;49.716;17.806;2022-07-26T05:10:08;19.60;99.90
20278;DHT22;10298;49.716;17.806;2022-07-26T05:12:35;19.50;99.90
20278;DHT22;10298;49.716;17.806;2022-07-26T05:15:02;19.40;99.90
20278;DHT22;10298;49.716;17.806;2022-07-26T05:17:30;19.50;99.90
20278;DHT22;10298;49.716;17.806;2022-07-26T05:20:01;19.40;99.90
20278;DHT22;10298;49.716;17.806;2022-07-26T05:22:29;19.30;99.90
20278;DHT22;10298;49.716;17.806;2022-07-26T05:24:56;19.10;99.90
20278;DHT22;10298;49.716;17.806;2022-07-26T05:27:23;19.00;99.90
20278;DHT22;10298;49.716;17.806;2022-07-26T05:29:50;19.00;99.90
20278;DHT22;10298;49.716;17.806;2022-07-26T05:32:16;19.00;99.90
20278;DHT22;10298;49.716;17.806;2022-07-26T05:34:44;19.00;99.90
20278;DHT22;10298;49.716;17.806;2022-07-26T05:37:10;18.80;99.90
20278;DHT22;10298;49.716;17.806;2022-07-26T05:39:38;18.80;99.90
20278;DHT22;10298;49.716;17.806;2022-07-26T05:42:05;18.80;99.90
20278;DHT22;10298;49.716;17.806;2022-07-26T05:44:32;18.80;99.90
20278;DHT22;10298;49.716;17.806;2022-07-26T05:46:59;18.80;99.90
20278;DHT22;10298;49.716;17.806;2022-07-26T05:49:26;18.70;99.90
20278;DHT22;10298;49.716;17.806;2022-07-26T05:52:05;18.70;99.90
20278;DHT22;10298;49.716;17.806;2022-07-26T05:54:32;18.70;99.90
20278;DHT22;10298;49.716;17.806;2022-07-26T05:56:59;18.70;99.90
20278;DHT22;10298;49.716;17.806;2022-07-26T05:59:26;18.60;99.90
20278;DHT22;10298;49.716;17.806;2022-07-26T06:01:53;18.60;99.90
20278;DHT22;10298;49.716;17.806;2022-07-26T06:04:24;18.70;99.90
20278;DHT22;10298;49.716;17.806;2022-07-26T06:06:52;18.60;99.90
20278;DHT22;10298;49.716;17.806;2022-07-26T06:09:21;18.60;99.90
20278;DHT22;10298;49.716;17.806;2022-07-26T06:11:50;18.50;99.90
20278;DHT22;10298;49.716;17.806;2022-07-26T06:14:18;18.60;99.90
20278;DHT22;10298;49.716;17.806;2022-07-26T06:16:48;18.60;99.90
20278;DHT22;10298;49.716;17.806;2022-07-26T06:19:15;18.60;99.90
20278;DHT22;10298;49.716;17.806;2022-07-26T06:21:42;18.60;99.90
20278;DHT22;10298;49.716;17.806;2022-07-26T06:24:12;18.60;99.90
20278;DHT22;10298;49.716;17.806;2022-07-26T06:26:39;18.70;99.90
20278;DHT22;10298;49.716;17.806;2022-07-26T06:29:06;18.60;99.90
20278;DHT22;10298;49.716;17.806;2022-07-26T06:31:33;18.70;99.90
20278;DHT22;10298;49.716;17.806;2022-07-26T06:34:00;18.60;99.90
20278;DHT22;10298;49.716;17.806;2022-07-26T06:36:27;18.60;99.90
20278;DHT22;10298;49.716;17.806;2022-07-26T06:38:57;18.60;99.90
20278;DHT22;10298;49.716;17.806;2022-07-26T06:41:24;18.60;99.90
20278;DHT22;10298;49.716;17.806;2022-07-26T06:43:51;18.60;99.90
20278;DHT22;10298;49.716;17.806;2022-07-26T06:46:17;18.70;99.90
20278;DHT22;10298;49.716;17.806;2022-07-26T06:48:49;18.60;99.90
20278;DHT22;10298;49.716;17.806;2022-07-26T06:51:22;18.60;99.90
20278;DHT22;10298;49.716;17.806;2022-07-26T06:53:49;18.70;99.90
20278;DHT22;10298;49.716;17.806;2022-07-26T06:56:17;18.80;99.90
20278;DHT22;10298;49.716;17.806;2022-07-26T06:58:44;18.80;99.90
20278;DHT22;10298;49.716;17.806;2022-07-26T07:01:12;18.70;99.90
20278;DHT22;10298;49.716;17.806;2022-07-26T07:03:58;18.60;99.90
20278;DHT22;10298;49.716;17.806;2022-07-26T07:06:25;18.50;99.90
20278;DHT22;10298;49.716;17.806;2022-07-26T07:08:52;18.60;99.90
20278;DHT22;10298;49.716;17.806;2022-07-26T07:11:19;18.60;99.90
20278;DHT22;10298;49.716;17.806;2022-07-26T07:13:46;18.50;99.90
20278;DHT22;10298;49.716;17.806;2022-07-26T07:16:13;18.50;99.90
20278;DHT22;10298;49.716;17.806;2022-07-26T07:18:40;18.50;99.90
20278;DHT22;10298;49.716;17.806;2022-07-26T07:21:06;18.40;99.90
20278;DHT22;10298;49.716;17.806;2022-07-26T07:23:33;18.40;99.90
20278;DHT22;10298;49.716;17.806;2022-07-26T07:26:00;18.30;99.90
20278;DHT22;10298;49.716;17.806;2022-07-26T07:28:27;18.30;99.90
20278;DHT22;10298;49.716;17.806;2022-07-26T07:30:54;18.30;99.90
20278;DHT22;10298;49.716;17.806;2022-07-26T07:33:21;18.30;99.90
20278;DHT22;10298;49.716;17.806;2022-07-26T07:35:51;18.40;99.90
20278;DHT22;10298;49.716;17.806;2022-07-26T07:38:19;18.50;99.90
20278;DHT22;10298;49.716;17.806;2022-07-26T07:40:48;18.40;99.90
20278;DHT22;10298;49.716;17.806;2022-07-26T07:43:15;18.40;99.90
20278;DHT22;10298;49.716;17.806;2022-07-26T07:45:41;18.50;99.90
20278;DHT22;10298;49.716;17.806;2022-07-26T07:48:13;18.50;99.90
20278;DHT22;10298;49.716;17.806;2022-07-26T07:50:40;18.50;99.90
20278;DHT22;10298;49.716;17.806;2022-07-26T07:53:07;18.60;99.90
20278;DHT22;10298;49.716;17.806;2022-07-26T07:55:34;18.70;99.90
20278;DHT22;10298;49.716;17.806;2022-07-26T07:58:11;18.60;99.90
20278;DHT22;10298;49.716;17.806;2022-07-26T08:00:39;18.70;99.90
20278;DHT22;10298;49.716;17.806;2022-07-26T08:03:07;18.70;99.90
20278;DHT22;10298;49.716;17.806;2022-07-26T08:05:34;18.60;99.90
20278;DHT22;10298;49.716;17.806;2022-07-26T08:08:05;18.50;99.90
20278;DHT22;10298;49.716;17.806;2022-07-26T08:10:34;18.50;99.90
20278;DHT22;10298;49.716;17.806;2022-07-26T08:13:07;18.80;99.90
20278;DHT22;10298;49.716;17.806;2022-07-26T08:15:35;18.70;99.90
20278;DHT22;10298;49.716;17.806;2022-07-26T08:18:04;19.00;99.90
20278;DHT22;10298;49.716;17.806;2022-07-26T08:20:34;19.20;99.90
20278;DHT22;10298;49.716;17.806;2022-07-26T08:23:02;19.40;99.90
20278;DHT22;10298;49.716;17.806;2022-07-26T08:25:29;19.40;99.90
20278;DHT22;10298;49.716;17.806;2022-07-26T08:27:56;19.40;99.90
20278;DHT22;10298;49.716;17.806;2022-07-26T08:30:31;19.40;99.90
20278;DHT22;10298;49.716;17.806;2022-07-26T08:32:58;19.40;99.90
20278;DHT22;10298;49.716;17.806;2022-07-26T08:35:26;19.20;99.90
20278;DHT22;10298;49.716;17.806;2022-07-26T08:37:56;19.30;99.90
20278;DHT22;10298;49.716;17.806;2022-07-26T08:40:23;19.40;99.90
20278;DHT22;10298;49.716;17.806;2022-07-26T08:42:55;19.50;99.90
20278;DHT22;10298;49.716;17.806;2022-07-26T08:45:27;19.60;99.90
20278;DHT22;10298;49.716;17.806;2022-07-26T08:47:54;19.60;99.90
20278;DHT22;10298;49.716;17.806;2022-07-26T08:50:42;19.50;99.90
20278;DHT22;10298;49.716;17.806;2022-07-26T08:53:09;19.50;99.90
20278;DHT22;10298;49.716;17.806;2022-07-26T08:55:38;19.40;99.90
20278;DHT22;10298;49.716;17.806;2022-07-26T08:58:25;19.30;99.90
20278;DHT22;10298;49.716;17.806;2022-07-26T09:01:07;19.20;99.90
20278;DHT22;10298;49.716;17.806;2022-07-26T09:03:34;19.20;99.90
20278;DHT22;10298;49.716;17.806;2022-07-26T09:06:21;19.20;99.90
20278;DHT22;10298;49.716;17.806;2022-07-26T09:09:09;19.20;99.90
20278;DHT22;10298;49.716;17.806;2022-07-26T09:11:37;19.00;99.90
20278;DHT22;10298;49.716;17.806;2022-07-26T09:14:04;18.80;99.90
20278;DHT22;10298;49.716;17.806;2022-07-26T09:16:32;18.80;99.90
20278;DHT22;10298;49.716;17.806;2022-07-26T09:19:19;18.70;99.90
20278;DHT22;10298;49.716;17.806;2022-07-26T09:21:49;18.60;99.90
20278;DHT22;10298;49.716;17.806;2022-07-26T09:24:35;18.40;99.90
20278;DHT22;10298;49.716;17.806;2022-07-26T09:27:05;18.40;99.90
20278;DHT22;10298;49.716;17.806;2022-07-26T09:30:05;18.40;99.90
20278;DHT22;10298;49.716;17.806;2022-07-26T09:32:32;18.30;99.90
20278;DHT22;10298;49.716;17.806;2022-07-26T09:35:11;18.10;99.90
20278;DHT22;10298;49.716;17.806;2022-07-26T09:37:58;18.30;99.90
20278;DHT22;10298;49.716;17.806;2022-07-26T09:40:34;18.10;99.90
20278;DHT22;10298;49.716;17.806;2022-07-26T09:43:03;18.10;99.90
20278;DHT22;10298;49.716;17.806;2022-07-26T09:45:33;18.20;99.90
20278;DHT22;10298;49.716;17.806;2022-07-26T09:48:02;18.00;99.90
20278;DHT22;10298;49.716;17.806;2022-07-26T09:50:31;18.10;99.90
20278;DHT22;10298;49.716;17.806;2022-07-26T09:53:12;18.10;99.90
20278;DHT22;10298;49.716;17.806;2022-07-26T09:58:13;17.70;99.90
20278;DHT22;10298;49.716;17.806;2022-07-26T10:00:41;17.70;99.90
20278;DHT22;10298;49.716;17.806;2022-07-26T10:03:09;17.70;99.90
20278;DHT22;10298;49.716;17.806;2022-07-26T10:05:36;17.60;99.90
20278;DHT22;10298;49.716;17.806;2022-07-26T10:08:04;17.50;99.90
20278;DHT22;10298;49.716;17.806;2022-07-26T10:10:42;17.40;99.90
20278;DHT22;10298;49.716;17.806;2022-07-26T10:13:11;17.40;99.90
20278;DHT22;10298;49.716;17.806;2022-07-26T10:15:46;17.20;99.90
20278;DHT22;10298;49.716;17.806;2022-07-26T10:21:23;17.30;99.90
20278;DHT22;10298;49.716;17.806;2022-07-26T10:23:51;17.30;99.90
20278;DHT22;10298;49.716;17.806;2022-07-26T10:31:47;17.00;99.90
20278;DHT22;10298;49.716;17.806;2022-07-26T10:34:33;16.80;99.90
20278;DHT22;10298;49.716;17.806;2022-07-26T10:37:05;16.70;99.90
20278;DHT22;10298;49.716;17.806;2022-07-26T10:39:32;16.50;99.90
20278;DHT22;10298;49.716;17.806;2022-07-26T10:42:09;16.50;99.90
20278;DHT22;10298;49.716;17.806;2022-07-26T10:44:41;16.40;99.90
20278;DHT22;10298;49.716;17.806;2022-07-26T10:47:15;16.40;99.90
20278;DHT22;10298;49.716;17.806;2022-07-26T10:49:53;16.50;99.90
20278;DHT22;10298;49.716;17.806;2022-07-26T10:52:29;16.50;99.90
20278;DHT22;10298;49.716;17.806;2022-07-26T10:57:29;16.40;99.90
20278;DHT22;10298;49.716;17.806;2022-07-26T10:59:57;16.50;99.90
20278;DHT22;10298;49.716;17.806;2022-07-26T11:02:26;16.50;99.90
20278;DHT22;10298;49.716;17.806;2022-07-26T11:05:12;16.60;99.90
20278;DHT22;10298;49.716;17.806;2022-07-26T11:08:03;16.60;99.90
20278;DHT22;10298;49.716;17.806;2022-07-26T11:10:43;16.70;99.90
20278;DHT22;10298;49.716;17.806;2022-07-26T11:13:16;16.90;99.90
20278;DHT22;10298;49.716;17.806;2022-07-26T11:15:58;16.90;99.90
20278;DHT22;10298;49.716;17.806;2022-07-26T11:18:31;17.00;99.90
20278;DHT22;10298;49.716;17.806;2022-07-26T11:21:14;17.20;99.90
20278;DHT22;10298;49.716;17.806;2022-07-26T11:23:45;17.20;99.90
20278;DHT22;10298;49.716;17.806;2022-07-26T11:26:16;17.20;99.90
20278;DHT22;10298;49.716;17.806;2022-07-26T11:29:00;17.40;99.90
20278;DHT22;10298;49.716;17.806;2022-07-26T11:31:45;17.50;99.90
20278;DHT22;10298;49.716;17.806;2022-07-26T11:34:27;17.50;99.90
20278;DHT22;10298;49.716;17.806;2022-07-26T11:36:57;17.50;99.90
20278;DHT22;10298;49.716;17.806;2022-07-26T11:39:34;17.50;99.90
20278;DHT22;10298;49.716;17.806;2022-07-26T11:42:11;17.00;99.90
20278;DHT22;10298;49.716;17.806;2022-07-26T11:44:46;17.10;99.90
20278;DHT22;10298;49.716;17.806;2022-07-26T11:47:19;17.20;99.90
20278;DHT22;10298;49.716;17.806;2022-07-26T11:49:52;17.20;99.90
20278;DHT22;10298;49.716;17.806;2022-07-26T11:52:39;17.40;99.90
20278;DHT22;10298;49.716;17.806;2022-07-26T11:55:07;17.60;99.90
20278;DHT22;10298;49.716;17.806;2022-07-26T11:57:34;17.70;99.90
20278;DHT22;10298;49.716;17.806;2022-07-26T12:00:01;17.30;99.90
20278;DHT22;10298;49.716;17.806;2022-07-26T12:02:29;17.20;99.90
20278;DHT22;10298;49.716;17.806;2022-07-26T12:05:20;17.40;99.90
20278;DHT22;10298;49.716;17.806;2022-07-26T12:07:59;17.40;99.90
20278;DHT22;10298;49.716;17.806;2022-07-26T12:10:28;17.60;99.90
20278;DHT22;10298;49.716;17.806;2022-07-26T12:13:12;17.30;99.90
20278;DHT22;10298;49.716;17.806;2022-07-26T12:15:50;17.50;99.90
20278;DHT22;10298;49.716;17.806;2022-07-26T12:18:25;17.70;99.90
20278;DHT22;10298;49.716;17.806;2022-07-26T12:20:57;17.60;99.90
20278;DHT22;10298;49.716;17.806;2022-07-26T12:23:45;17.80;99.90
20278;DHT22;10298;49.716;17.806;2022-07-26T12:26:21;17.00;99.90
20278;DHT22;10298;49.716;17.806;2022-07-26T12:28:49;17.20;99.90
20278;DHT22;10298;49.716;17.806;2022-07-26T12:31:41;16.90;99.90
20278;DHT22;10298;49.716;17.806;2022-07-26T12:34:08;16.90;99.90
20278;DHT22;10298;49.716;17.806;2022-07-26T12:36:36;17.10;99.90
20278;DHT22;10298;49.716;17.806;2022-07-26T12:39:03;17.30;99.90
20278;DHT22;10298;49.716;17.806;2022-07-26T12:41:37;17.70;99.90
20278;DHT22;10298;49.716;17.806;2022-07-26T12:44:05;17.50;99.90
20278;DHT22;10298;49.716;17.806;2022-07-26T12:46:35;17.50;99.90
20278;DHT22;10298;49.716;17.806;2022-07-26T12:49:03;17.10;99.90
20278;DHT22;10298;49.716;17.806;2022-07-26T12:51:31;17.20;99.90
20278;DHT22;10298;49.716;17.806;2022-07-26T12:53:58;17.20;99.90
20278;DHT22;10298;49.716;17.806;2022-07-26T12:56:24;17.30;99.90
20278;DHT22;10298;49.716;17.806;2022-07-26T12:58:51;17.20;99.90
20278;DHT22;10298;49.716;17.806;2022-07-26T13:01:19;17.30;99.90
20278;DHT22;10298;49.716;17.806;2022-07-26T13:03:46;17.30;99.90
20278;DHT22;10298;49.716;17.806;2022-07-26T13:06:13;17.20;99.90
20278;DHT22;10298;49.716;17.806;2022-07-26T13:08:40;16.80;99.90
20278;DHT22;10298;49.716;17.806;2022-07-26T13:11:07;17.00;99.90
20278;DHT22;10298;49.716;17.806;2022-07-26T13:13:34;17.30;99.90
20278;DHT22;10298;49.716;17.806;2022-07-26T13:16:01;17.40;99.90
20278;DHT22;10298;49.716;17.806;2022-07-26T13:18:31;17.50;99.90
20278;DHT22;10298;49.716;17.806;2022-07-26T13:20:57;17.60;99.90
20278;DHT22;10298;49.716;17.806;2022-07-26T13:23:24;17.60;99.90
20278;DHT22;10298;49.716;17.806;2022-07-26T13:25:52;17.40;99.90
20278;DHT22;10298;49.716;17.806;2022-07-26T13:28:21;17.00;99.90
20278;DHT22;10298;49.716;17.806;2022-07-26T13:30:48;17.00;99.90
20278;DHT22;10298;49.716;17.806;2022-07-26T13:33:15;17.20;99.90
20278;DHT22;10298;49.716;17.806;2022-07-26T13:35:43;17.30;99.90
20278;DHT22;10298;49.716;17.806;2022-07-26T13:38:10;17.30;99.90
20278;DHT22;10298;49.716;17.806;2022-07-26T13:40:37;17.40;99.90
20278;DHT22;10298;49.716;17.806;2022-07-26T13:43:04;17.60;99.90
20278;DHT22;10298;49.716;17.806;2022-07-26T13:45:31;17.80;99.90
20278;DHT22;10298;49.716;17.806;2022-07-26T13:47:58;18.00;99.90
20278;DHT22;10298;49.716;17.806;2022-07-26T13:50:26;18.20;99.90
20278;DHT22;10298;49.716;17.806;2022-07-26T13:52:54;18.00;99.90
20278;DHT22;10298;49.716;17.806;2022-07-26T13:55:22;17.90;99.90
20278;DHT22;10298;49.716;17.806;2022-07-26T13:57:49;17.80;99.90
20278;DHT22;10298;49.716;17.806;2022-07-26T14:00:24;17.90;99.90
20278;DHT22;10298;49.716;17.806;2022-07-26T14:02:51;17.90;99.90
20278;DHT22;10298;49.716;17.806;2022-07-26T14:05:19;17.80;99.90
20278;DHT22;10298;49.716;17.806;2022-07-26T14:07:46;18.00;99.90
20278;DHT22;10298;49.716;17.806;2022-07-26T14:10:13;18.00;99.90
20278;DHT22;10298;49.716;17.806;2022-07-26T14:12:40;17.70;99.90
20278;DHT22;10298;49.716;17.806;2022-07-26T14:15:07;18.10;99.90
20278;DHT22;10298;49.716;17.806;2022-07-26T14:17:45;18.00;99.90
20278;DHT22;10298;49.716;17.806;2022-07-26T14:20:13;18.00;99.90
20278;DHT22;10298;49.716;17.806;2022-07-26T14:22:43;18.00;99.90
20278;DHT22;10298;49.716;17.806;2022-07-26T14:25:10;17.50;99.90
20278;DHT22;10298;49.716;17.806;2022-07-26T14:27:37;17.30;99.90
20278;DHT22;10298;49.716;17.806;2022-07-26T14:30:04;17.50;99.90
20278;DHT22;10298;49.716;17.806;2022-07-26T14:32:31;17.70;99.90
20278;DHT22;10298;49.716;17.806;2022-07-26T14:34:58;17.90;99.90
20278;DHT22;10298;49.716;17.806;2022-07-26T14:37:25;17.90;99.90
20278;DHT22;10298;49.716;17.806;2022-07-26T14:40:16;17.90;99.90
20278;DHT22;10298;49.716;17.806;2022-07-26T14:42:44;18.00;99.90
20278;DHT22;10298;49.716;17.806;2022-07-26T14:45:12;17.50;99.90
20278;DHT22;10298;49.716;17.806;2022-07-26T14:47:39;17.60;99.90
20278;DHT22;10298;49.716;17.806;2022-07-26T14:50:07;17.80;99.90
20278;DHT22;10298;49.716;17.806;2022-07-26T14:52:43;18.20;99.90
20278;DHT22;10298;49.716;17.806;2022-07-26T14:55:11;18.50;99.90
20278;DHT22;10298;49.716;17.806;2022-07-26T14:57:38;18.60;99.90
20278;DHT22;10298;49.716;17.806;2022-07-26T15:00:11;18.40;99.90
20278;DHT22;10298;49.716;17.806;2022-07-26T15:02:41;18.60;99.90
20278;DHT22;10298;49.716;17.806;2022-07-26T15:05:18;18.30;99.90
20278;DHT22;10298;49.716;17.806;2022-07-26T15:07:47;18.60;99.90
20278;DHT22;10298;49.716;17.806;2022-07-26T15:10:14;18.30;99.90
20278;DHT22;10298;49.716;17.806;2022-07-26T15:12:42;18.40;99.90
20278;DHT22;10298;49.716;17.806;2022-07-26T15:15:09;18.50;99.90
20278;DHT22;10298;49.716;17.806;2022-07-26T15:17:37;18.20;99.90
20278;DHT22;10298;49.716;17.806;2022-07-26T15:20:04;18.60;99.90
20278;DHT22;10298;49.716;17.806;2022-07-26T15:22:31;18.80;99.90
20278;DHT22;10298;49.716;17.806;2022-07-26T15:24:58;19.00;99.90
20278;DHT22;10298;49.716;17.806;2022-07-26T15:27:25;18.40;99.90
20278;DHT22;10298;49.716;17.806;2022-07-26T15:29:52;18.20;99.90
20278;DHT22;10298;49.716;17.806;2022-07-26T15:32:19;18.20;99.90
20278;DHT22;10298;49.716;17.806;2022-07-26T15:34:47;18.20;99.90
20278;DHT22;10298;49.716;17.806;2022-07-26T15:37:14;18.20;99.90
20278;DHT22;10298;49.716;17.806;2022-07-26T15:39:41;17.80;99.90
20278;DHT22;10298;49.716;17.806;2022-07-26T15:42:08;18.00;99.90
20278;DHT22;10298;49.716;17.806;2022-07-26T15:44:37;17.90;99.90